createdAt,value
2023-04-21T00:00:45.174Z,9.358653
2023-04-21T00:01:45.158Z,9.358638
2023-04-21T00:02:45.342Z,9.358571
2023-04-21T00:03:45.247Z,9.358537
2023-04-21T00:04:45.313Z,9.358594
2023-04-21T00:05:45.145Z,9.358663
2023-04-21T00:06:45.145Z,9.358582
2023-04-21T00:07:45.104Z,9.358502
2023-04-21T00:08:45.073Z,9.358487
2023-04-21T00:09:45.075Z,9.358569
2023-04-21T00:10:45.085Z,9.358571
2023-04-21T00:11:45.062Z,9.358580
2023-04-21T00:12:44.984Z,9.358610
2023-04-21T00:13:45.012Z,9.358578
2023-04-21T00:14:45.043Z,9.358519
2023-04-21T00:15:45.022Z,9.358507
2023-04-21T00:16:44.959Z,9.358488
2023-04-21T00:17:45.028Z,9.358551
2023-04-21T00:18:44.935Z,9.358634
2023-04-21T00:19:44.985Z,9.358640
2023-04-21T00:20:44.943Z,9.358586
2023-04-21T00:21:44.935Z,9.358580
2023-04-21T00:22:44.880Z,9.358627
2023-04-21T00:23:44.893Z,9.358592
2023-04-21T00:24:44.895Z,9.358619
2023-04-21T00:25:44.849Z,9.358612
2023-04-21T00:26:44.876Z,9.358525
2023-04-21T00:27:44.843Z,9.358543
2023-04-21T00:28:44.809Z,9.358544
2023-04-21T00:29:44.948Z,9.358560
2023-04-21T00:30:44.882Z,9.358571
2023-04-21T00:31:44.857Z,9.358624
2023-04-21T00:32:44.763Z,9.358650
2023-04-21T00:33:44.785Z,9.358549
2023-04-21T00:34:44.738Z,9.358509
2023-04-21T00:35:44.746Z,9.358557
2023-04-21T00:36:44.743Z,9.358562
2023-04-21T00:37:44.724Z,9.358528
2023-04-21T00:38:44.712Z,9.358510
2023-04-21T00:39:44.716Z,9.358579
2023-04-21T00:40:44.744Z,9.358626
2023-04-21T00:41:44.732Z,9.358681
2023-04-21T00:42:44.748Z,9.358623
2023-04-21T00:43:44.644Z,9.358594
2023-04-21T00:44:44.659Z,9.358600
2023-04-21T00:45:44.643Z,9.358683
2023-04-21T00:46:44.674Z,9.358686
2023-04-21T00:47:44.649Z,9.358645
2023-04-21T00:48:44.653Z,9.358606
2023-04-21T00:49:44.600Z,9.358624
2023-04-21T00:50:44.602Z,9.358641
2023-04-21T00:51:44.580Z,9.358719
2023-04-21T00:52:44.565Z,9.358684
2023-04-21T00:53:44.549Z,9.358643
2023-04-21T00:54:44.539Z,9.358621
2023-04-21T00:55:44.533Z,9.358616
2023-04-21T00:56:44.494Z,9.358570
2023-04-21T00:57:44.555Z,9.358610
2023-04-21T00:58:44.475Z,9.358656
2023-04-21T00:59:44.505Z,9.358591
2023-04-21T01:00:44.555Z,9.358617
2023-04-21T01:01:44.525Z,9.358577
2023-04-21T01:02:44.582Z,9.358574
2023-04-21T01:03:44.519Z,9.358593
2023-04-21T01:04:44.487Z,9.358648
2023-04-21T01:05:44.429Z,9.358646
2023-04-21T01:06:44.426Z,9.358644
2023-04-21T01:07:44.445Z,9.358636
2023-04-21T01:08:44.356Z,9.358574
2023-04-21T01:09:44.400Z,9.358545
2023-04-21T01:10:44.374Z,9.358579
2023-04-21T01:11:44.368Z,9.358598
2023-04-21T01:12:44.337Z,9.358619
2023-04-21T01:13:44.356Z,9.358567
2023-04-21T01:14:44.354Z,9.358555
2023-04-21T01:15:44.341Z,9.358582
2023-04-21T01:16:44.341Z,9.358542
2023-04-21T01:17:44.331Z,9.358541
2023-04-21T01:18:44.330Z,9.358557
2023-04-21T01:19:44.264Z,9.358570
2023-04-21T01:20:44.251Z,9.358609
2023-04-21T01:21:44.259Z,9.358612
2023-04-21T01:22:44.219Z,9.358581
2023-04-21T01:23:44.250Z,9.358568
2023-04-21T01:24:44.232Z,9.358562
2023-04-21T01:25:44.199Z,9.358568
2023-04-21T01:26:44.177Z,9.358681
2023-04-21T01:27:44.172Z,9.358577
2023-04-21T01:28:44.218Z,9.358523
2023-04-21T01:29:44.154Z,9.358448
2023-04-21T01:30:44.165Z,9.358632
2023-04-21T01:31:44.217Z,9.358668
2023-04-21T01:32:44.175Z,9.358575
2023-04-21T01:33:44.131Z,9.358541
2023-04-21T01:34:44.123Z,9.358577
2023-04-21T01:35:44.151Z,9.358561
2023-04-21T01:36:44.072Z,9.358509
2023-04-21T01:37:44.108Z,9.358496
2023-04-21T01:38:44.118Z,9.358520
2023-04-21T01:39:44.050Z,9.358548
2023-04-21T01:40:44.089Z,9.358525
2023-04-21T01:41:44.036Z,9.358519
2023-04-21T01:42:44.037Z,9.358445
2023-04-21T01:43:44.014Z,9.358485
2023-04-21T01:44:44.011Z,9.358541
2023-04-21T01:45:43.994Z,9.358475
2023-04-21T01:46:43.982Z,9.358532
2023-04-21T01:47:43.992Z,9.358595
2023-04-21T01:48:43.953Z,9.358595
2023-04-21T01:49:43.957Z,9.358565
2023-04-21T01:50:44.003Z,9.358557
2023-04-21T01:51:43.914Z,9.358584
2023-04-21T01:52:43.944Z,9.358596
2023-04-21T01:53:43.918Z,9.358528
2023-04-21T01:54:43.884Z,9.358511
2023-04-21T01:55:43.870Z,9.358470
2023-04-21T01:56:43.984Z,9.358491
2023-04-21T01:57:43.878Z,9.358537
2023-04-21T01:58:43.843Z,9.358537
2023-04-21T01:59:43.890Z,9.358566
2023-04-21T02:00:43.846Z,9.358516
2023-04-21T02:01:43.844Z,9.358505
2023-04-21T02:02:44.040Z,9.358554
2023-04-21T02:03:43.955Z,9.358535
2023-04-21T02:04:43.779Z,9.358515
2023-04-21T02:05:43.768Z,9.358494
2023-04-21T02:06:43.803Z,9.358489
2023-04-21T02:07:43.753Z,9.358553
2023-04-21T02:08:43.719Z,9.358602
2023-04-21T02:09:43.753Z,9.358563
2023-04-21T02:10:43.700Z,9.358530
2023-04-21T02:11:43.737Z,9.358613
2023-04-21T02:12:43.709Z,9.358538
2023-04-21T02:13:43.727Z,9.358558
2023-04-21T02:14:43.669Z,9.358571
2023-04-21T02:15:43.700Z,9.358585
2023-04-21T02:16:43.769Z,9.358599
2023-04-21T02:17:43.706Z,9.358561
2023-04-21T02:18:43.612Z,9.358562
2023-04-21T02:19:43.620Z,9.358577
2023-04-21T02:20:43.627Z,9.358565
2023-04-21T02:21:43.606Z,9.358526
2023-04-21T02:22:43.574Z,9.358530
2023-04-21T02:23:43.561Z,9.358557
2023-04-21T02:24:43.576Z,9.358542
2023-04-21T02:25:43.555Z,9.358605
2023-04-21T02:26:43.600Z,9.358676
2023-04-21T02:27:43.533Z,9.358631
2023-04-21T02:28:43.502Z,9.358677
2023-04-21T02:29:43.515Z,9.358665
2023-04-21T02:30:43.516Z,9.358586
2023-04-21T02:31:57.253Z,9.358512
2023-04-21T02:32:45.541Z,9.358526
2023-04-21T02:33:43.480Z,9.358545
2023-04-21T02:34:43.487Z,9.358530
2023-04-21T02:35:43.465Z,9.358525
2023-04-21T02:36:43.446Z,9.358580
2023-04-21T02:37:43.431Z,9.358570
2023-04-21T02:38:43.424Z,9.358610
2023-04-21T02:39:43.398Z,9.358616
2023-04-21T02:40:43.404Z,9.358586
2023-04-21T02:41:43.359Z,9.358606
2023-04-21T02:42:43.413Z,9.358579
2023-04-21T02:43:43.379Z,9.358622
2023-04-21T02:44:43.345Z,9.358581
2023-04-21T02:45:43.332Z,9.358534
2023-04-21T02:46:43.389Z,9.358507
2023-04-21T02:47:43.360Z,9.358521
2023-04-21T02:48:43.290Z,9.358549
2023-04-21T02:49:43.320Z,9.358572
2023-04-21T02:50:43.305Z,9.358540
2023-04-21T02:51:43.302Z,9.358570
2023-04-21T02:52:43.263Z,9.358537
2023-04-21T02:53:43.255Z,9.358555
2023-04-21T02:54:43.252Z,9.358557
2023-04-21T02:55:44.210Z,9.358578
2023-04-21T02:56:43.224Z,9.358580
2023-04-21T02:57:43.217Z,9.358556
2023-04-21T02:58:43.180Z,9.358533
2023-04-21T02:59:43.194Z,9.358568
2023-04-21T03:00:43.210Z,9.358651
2023-04-21T03:01:43.182Z,9.358643
2023-04-21T03:02:43.226Z,9.358621
2023-04-21T03:03:43.247Z,9.358606
2023-04-21T03:04:43.214Z,9.358637
2023-04-21T03:05:43.119Z,9.358655
2023-04-21T03:06:43.145Z,9.358546
2023-04-21T03:07:43.086Z,9.358565
2023-04-21T03:08:43.077Z,9.358546
2023-04-21T03:09:43.103Z,9.358527
2023-04-21T03:10:43.089Z,9.358541
2023-04-21T03:11:43.090Z,9.358533
2023-04-21T03:12:43.040Z,9.358646
2023-04-21T03:13:43.047Z,9.358623
2023-04-21T03:14:43.012Z,9.358607
2023-04-21T03:15:43.006Z,9.358500
2023-04-21T03:16:43.072Z,9.358542
2023-04-21T03:17:43.021Z,9.358594
2023-04-21T03:18:42.960Z,9.358636
2023-04-21T03:19:42.967Z,9.358675
2023-04-21T03:20:42.991Z,9.358740
2023-04-21T03:21:42.933Z,9.358587
2023-04-21T03:22:42.961Z,9.358565
2023-04-21T03:23:42.915Z,9.358617
2023-04-21T03:24:42.938Z,9.358597
2023-04-21T03:25:42.939Z,9.358599
2023-04-21T03:26:42.870Z,9.358562
2023-04-21T03:27:42.878Z,9.358623
2023-04-21T03:28:42.920Z,9.358574
2023-04-21T03:29:42.846Z,9.358553
2023-04-21T03:30:42.959Z,9.358527
2023-04-21T03:31:42.985Z,9.358536
2023-04-21T03:32:42.852Z,9.358481
2023-04-21T03:33:42.865Z,9.358492
2023-04-21T03:34:42.820Z,9.358551
2023-04-21T03:35:42.861Z,9.358562
2023-04-21T03:36:42.783Z,9.358550
2023-04-21T03:37:42.779Z,9.358597
2023-04-21T03:38:42.784Z,9.358592
2023-04-21T03:39:42.750Z,9.358575
2023-04-21T03:40:43.744Z,9.358546
2023-04-21T03:41:42.748Z,9.358498
2023-04-21T03:42:42.751Z,9.358467
2023-04-21T03:43:42.735Z,9.358525
2023-04-21T03:44:42.720Z,9.358523
2023-04-21T03:45:42.709Z,9.358598
2023-04-21T03:46:42.684Z,9.358524
2023-04-21T03:47:42.732Z,9.358519
2023-04-21T03:48:42.697Z,9.358480
2023-04-21T03:49:49.319Z,9.358481
2023-04-21T03:50:42.636Z,9.358506
2023-04-21T03:51:42.658Z,9.358510
2023-04-21T03:52:42.597Z,9.358489
2023-04-21T03:53:42.635Z,9.358512
2023-04-21T03:54:42.613Z,9.358495
2023-04-21T03:55:42.579Z,9.358500
2023-04-21T03:56:42.620Z,9.358500
2023-04-21T03:57:42.573Z,9.358526
2023-04-21T03:58:42.570Z,9.358512
2023-04-21T03:59:42.557Z,9.358474
2023-04-21T04:00:42.555Z,9.358468
2023-04-21T04:01:42.483Z,9.358473
2023-04-21T04:02:42.681Z,9.358517
2023-04-21T04:03:42.613Z,9.358511
2023-04-21T04:04:42.629Z,9.358527
2023-04-21T04:05:42.582Z,9.358537
2023-04-21T04:06:42.465Z,9.358560
2023-04-21T04:07:43.517Z,9.358541
2023-04-21T04:08:42.410Z,9.358537
2023-04-21T04:09:42.433Z,9.358536
2023-04-21T04:10:42.401Z,9.358519
2023-04-21T04:11:42.404Z,9.358588
2023-04-21T04:12:42.425Z,9.358558
2023-04-21T04:13:42.373Z,9.358610
2023-04-21T04:14:42.360Z,9.358620
2023-04-21T04:15:42.422Z,9.358534
2023-04-21T04:16:42.406Z,9.358536
2023-04-21T04:17:42.360Z,9.358542
2023-04-21T04:18:42.339Z,9.358521
2023-04-21T04:19:42.321Z,9.358556
2023-04-21T04:20:42.289Z,9.358589
2023-04-21T04:21:42.290Z,9.358512
2023-04-21T04:22:42.305Z,9.358538
2023-04-21T04:23:42.269Z,9.358669
2023-04-21T04:24:43.270Z,9.358602
2023-04-21T04:25:42.247Z,9.358598
2023-04-21T04:26:42.258Z,9.358557
2023-04-21T04:27:42.254Z,9.358495
2023-04-21T04:28:42.206Z,9.358538
2023-04-21T04:29:42.221Z,9.358568
2023-04-21T04:30:42.209Z,9.358618
2023-04-21T04:31:42.325Z,9.358603
2023-04-21T04:32:42.245Z,9.358603
2023-04-21T04:33:42.193Z,9.358637
2023-04-21T04:34:42.132Z,9.358617
2023-04-21T04:35:43.133Z,9.358622
2023-04-21T04:36:42.137Z,9.358556
2023-04-21T04:37:42.152Z,9.358460
2023-04-21T04:38:42.085Z,9.358441
2023-04-21T04:39:42.108Z,9.358487
2023-04-21T04:40:42.115Z,9.358484
2023-04-21T04:41:42.041Z,9.358490
2023-04-21T04:42:42.124Z,9.358559
2023-04-21T04:43:42.045Z,9.358554
2023-04-21T04:44:42.020Z,9.358530
2023-04-21T04:45:42.054Z,9.358541
2023-04-21T04:46:42.090Z,9.358492
2023-04-21T04:47:42.050Z,9.358480
2023-04-21T04:48:42.003Z,9.358506
2023-04-21T04:49:42.013Z,9.358541
2023-04-21T04:50:41.945Z,9.358572
2023-04-21T04:51:41.958Z,9.358536
2023-04-21T04:52:41.973Z,9.358524
2023-04-21T04:53:41.969Z,9.358588
2023-04-21T04:54:41.901Z,9.358504
2023-04-21T04:55:41.913Z,9.358511
2023-04-21T04:56:41.934Z,9.358525
2023-04-21T04:57:41.946Z,9.358534
2023-04-21T04:58:41.913Z,9.358515
2023-04-21T04:59:41.900Z,9.358424
2023-04-21T05:00:41.952Z,9.358454
2023-04-21T05:01:41.900Z,9.358473
2023-04-21T05:02:42.053Z,9.358500
2023-04-21T05:03:41.929Z,9.358495
2023-04-21T05:04:41.965Z,9.358500
2023-04-21T05:05:41.778Z,9.358459
2023-04-21T05:06:41.871Z,9.358413
2023-04-21T05:07:41.771Z,9.358423
2023-04-21T05:08:41.758Z,9.358491
2023-04-21T05:09:41.754Z,9.358495
2023-04-21T05:10:41.784Z,9.358506
2023-04-21T05:11:41.767Z,9.358458
2023-04-21T05:12:41.749Z,9.358472
2023-04-21T05:13:41.730Z,9.358472
2023-04-21T05:14:41.706Z,9.358480
2023-04-21T05:15:41.682Z,9.358490
2023-04-21T05:16:41.770Z,9.358460
2023-04-21T05:17:41.734Z,9.358484
2023-04-21T05:18:41.651Z,9.358479
2023-04-21T05:19:41.660Z,9.358476
2023-04-21T05:20:41.646Z,9.358494
2023-04-21T05:21:41.613Z,9.358521
2023-04-21T05:22:41.680Z,9.358521
2023-04-21T05:23:41.664Z,9.358518
2023-04-21T05:24:41.619Z,9.358524
2023-04-21T05:25:41.585Z,9.358521
2023-04-21T05:26:41.600Z,9.358510
2023-04-21T05:27:41.554Z,9.358592
2023-04-21T05:28:41.527Z,9.358581
2023-04-21T05:29:41.573Z,9.358597
2023-04-21T05:30:41.629Z,9.358644
2023-04-21T05:31:41.558Z,9.358655
2023-04-21T05:32:41.504Z,9.358604
2023-04-21T05:33:41.507Z,9.358531
2023-04-21T05:34:41.487Z,9.358549
2023-04-21T05:35:41.463Z,9.358533
2023-04-21T05:36:41.473Z,9.358523
2023-04-21T05:37:41.488Z,9.358530
2023-04-21T05:38:41.413Z,9.358544
2023-04-21T05:39:41.406Z,9.358599
2023-04-21T05:40:41.461Z,9.358626
2023-04-21T05:41:41.492Z,9.358579
2023-04-21T05:42:41.358Z,9.358512
2023-04-21T05:43:41.370Z,9.358464
2023-04-21T05:44:41.369Z,9.358494
2023-04-21T05:45:41.493Z,9.358603
2023-04-21T05:46:41.366Z,9.358640
2023-04-21T05:47:41.390Z,9.358634
2023-04-21T05:48:41.286Z,9.358569
2023-04-21T05:49:41.293Z,9.358509
2023-04-21T05:50:41.289Z,9.358559
2023-04-21T05:51:41.319Z,9.358592
2023-04-21T05:52:41.254Z,9.358597
2023-04-21T05:53:41.259Z,9.358568
2023-04-21T05:54:41.222Z,9.358595
2023-04-21T05:55:41.361Z,9.358584
2023-04-21T05:56:41.309Z,9.358615
2023-04-21T05:57:41.303Z,9.358616
2023-04-21T05:58:41.175Z,9.358539
2023-04-21T05:59:41.192Z,9.358519
2023-04-21T06:00:41.211Z,9.358502
2023-04-21T06:01:41.138Z,9.358529
2023-04-21T06:02:41.325Z,9.358526
2023-04-21T06:03:41.274Z,9.358523
2023-04-21T06:04:41.283Z,9.358545
2023-04-21T06:05:41.223Z,9.358526
2023-04-21T06:06:41.124Z,9.358591
2023-04-21T06:07:41.097Z,9.358612
2023-04-21T06:08:41.110Z,9.358595
2023-04-21T06:09:41.164Z,9.358537
2023-04-21T06:10:41.042Z,9.358559
2023-04-21T06:11:41.124Z,9.358592
2023-04-21T06:12:41.073Z,9.358549
2023-04-21T06:13:43.471Z,9.358519
2023-04-21T06:14:42.031Z,9.358477
2023-04-21T06:15:41.033Z,9.358414
2023-04-21T06:16:41.101Z,9.358434
2023-04-21T06:17:41.005Z,9.358453
2023-04-21T06:18:40.968Z,9.358495
2023-04-21T06:19:41.979Z,9.358507
2023-04-21T06:20:41.928Z,9.358519
2023-04-21T06:21:40.925Z,9.358570
2023-04-21T06:22:40.966Z,9.358572
2023-04-21T06:23:40.953Z,9.358594
2023-04-21T06:24:40.938Z,9.358604
2023-04-21T06:25:40.941Z,9.358617
2023-04-21T06:26:40.920Z,9.358604
2023-04-21T06:27:40.851Z,9.358585
2023-04-21T06:28:40.905Z,9.358595
2023-04-21T06:29:40.853Z,9.358566
2023-04-21T06:30:40.895Z,9.358546
2023-04-21T06:31:40.850Z,9.358487
2023-04-21T06:32:40.849Z,9.358496
2023-04-21T06:33:40.826Z,9.358541
2023-04-21T06:34:40.764Z,9.358582
2023-04-21T06:35:40.755Z,9.358620
2023-04-21T06:36:40.761Z,9.358594
2023-04-21T06:37:40.795Z,9.358513
2023-04-21T06:38:40.721Z,9.358486
2023-04-21T06:39:40.718Z,9.358488
2023-04-21T06:40:40.746Z,9.358500
2023-04-21T06:41:40.673Z,9.358494
2023-04-21T06:42:40.700Z,9.358617
2023-04-21T06:43:40.705Z,9.358616
2023-04-21T06:44:40.703Z,9.358541
2023-04-21T06:45:40.653Z,9.358510
2023-04-21T06:46:40.749Z,9.358495
2023-04-21T06:47:40.736Z,9.358537
2023-04-21T06:48:40.622Z,9.358496
2023-04-21T06:49:40.633Z,9.358493
2023-04-21T06:50:40.607Z,9.358516
2023-04-21T06:51:40.592Z,9.358538
2023-04-21T06:52:40.576Z,9.358548
2023-04-21T06:53:40.600Z,9.358540
2023-04-21T06:54:40.533Z,9.358515
2023-04-21T06:55:40.524Z,9.358522
2023-04-21T06:56:40.602Z,9.358467
2023-04-21T06:57:40.509Z,9.358499
2023-04-21T06:58:40.527Z,9.358523
2023-04-21T06:59:40.530Z,9.358543
2023-04-21T07:00:40.568Z,9.358517
2023-04-21T07:01:40.521Z,9.358595
2023-04-21T07:02:40.658Z,9.358559
2023-04-21T07:03:40.511Z,9.358541
2023-04-21T07:04:40.462Z,9.358500
2023-04-21T07:05:40.448Z,9.358527
2023-04-21T07:06:40.493Z,9.358494
2023-04-21T07:07:40.521Z,9.358580
2023-04-21T07:08:40.397Z,9.358633
2023-04-21T07:09:40.408Z,9.358605
2023-04-21T07:10:40.384Z,9.358594
2023-04-21T07:11:40.385Z,9.358637
2023-04-21T07:12:40.368Z,9.358581
2023-04-21T07:13:40.402Z,9.358429
2023-04-21T07:14:40.322Z,9.358514
2023-04-21T07:15:40.301Z,9.358545
2023-04-21T07:16:40.365Z,9.358505
2023-04-21T07:17:40.354Z,9.358547
2023-04-21T07:18:40.290Z,9.358555
2023-04-21T07:19:41.341Z,9.358497
2023-04-21T07:20:40.290Z,9.358489
2023-04-21T07:21:40.237Z,9.358517
2023-04-21T07:22:40.256Z,9.358590
2023-04-21T07:23:40.233Z,9.358636
2023-04-21T07:24:40.209Z,9.358537
2023-04-21T07:25:40.217Z,9.358475
2023-04-21T07:26:40.201Z,9.358488
2023-04-21T07:27:40.179Z,9.358527
2023-04-21T07:28:40.162Z,9.358550
2023-04-21T07:29:40.230Z,9.358601
2023-04-21T07:30:40.167Z,9.358598
2023-04-21T07:31:40.333Z,9.358588
2023-04-21T07:32:40.193Z,9.358582
2023-04-21T07:33:40.129Z,9.358584
2023-04-21T07:34:40.118Z,9.358613
2023-04-21T07:35:40.088Z,9.358617
2023-04-21T07:36:40.153Z,9.358650
2023-04-21T07:37:40.073Z,9.358534
2023-04-21T07:38:40.237Z,9.358562
2023-04-21T07:39:40.058Z,9.358551
2023-04-21T07:40:40.074Z,9.358614
2023-04-21T07:41:40.081Z,9.358578
2023-04-21T07:42:40.007Z,9.358586
2023-04-21T07:43:40.013Z,9.358561
2023-04-21T07:44:40.019Z,9.358551
2023-04-21T07:45:39.957Z,9.358590
2023-04-21T07:46:40.166Z,9.358566
2023-04-21T07:47:39.983Z,9.358536
2023-04-21T07:48:39.940Z,9.358552
2023-04-21T07:49:39.948Z,9.358542
2023-04-21T07:50:39.937Z,9.358541
2023-04-21T07:51:39.942Z,9.358540
2023-04-21T07:52:39.949Z,9.358588
2023-04-21T07:53:39.949Z,9.358593
2023-04-21T07:54:39.855Z,9.358603
2023-04-21T07:55:39.889Z,9.358603
2023-04-21T07:56:39.913Z,9.358593
2023-04-21T07:57:39.868Z,9.358550
2023-04-21T07:58:39.860Z,9.358541
2023-04-21T07:59:39.822Z,9.358499
2023-04-21T08:00:39.870Z,9.358476
2023-04-21T08:01:39.833Z,9.358484
2023-04-21T08:02:39.890Z,9.358543
2023-04-21T08:03:40.176Z,9.358628
2023-04-21T08:04:39.849Z,9.358597
2023-04-21T08:05:41.567Z,9.358623
2023-04-21T08:06:40.819Z,9.358579
2023-04-21T08:07:39.800Z,9.358600
2023-04-21T08:08:39.733Z,9.358604
2023-04-21T08:09:39.776Z,9.358560
2023-04-21T08:10:39.823Z,9.358560
2023-04-21T08:11:39.764Z,9.358572
2023-04-21T08:12:39.694Z,9.358611
2023-04-21T08:13:39.688Z,9.358611
2023-04-21T08:14:39.717Z,9.358536
2023-04-21T08:15:39.663Z,9.358537
2023-04-21T08:16:39.755Z,9.358590
2023-04-21T08:17:39.730Z,9.358611
2023-04-21T08:18:39.648Z,9.358580
2023-04-21T08:19:39.599Z,9.358572
2023-04-21T08:20:39.614Z,9.358570
2023-04-21T08:21:39.618Z,9.358566
2023-04-21T08:22:39.649Z,9.358545
2023-04-21T08:23:39.591Z,9.358598
2023-04-21T08:24:39.588Z,9.358554
2023-04-21T08:25:39.551Z,9.358530
2023-04-21T08:26:39.571Z,9.358574
2023-04-21T08:27:39.538Z,9.358564
2023-04-21T08:28:39.508Z,9.358592
2023-04-21T08:29:39.510Z,9.358552
2023-04-21T08:30:39.520Z,9.358605
2023-04-21T08:31:39.519Z,9.358644
2023-04-21T08:32:39.522Z,9.358568
2023-04-21T08:33:49.870Z,9.358597
2023-04-21T08:34:41.506Z,9.358573
2023-04-21T08:35:47.982Z,9.358566
2023-04-21T08:36:40.557Z,9.358613
2023-04-21T08:37:39.443Z,9.358685
2023-04-21T08:38:39.408Z,9.358663
2023-04-21T08:39:39.405Z,9.358627
2023-04-21T08:40:39.447Z,9.358641
2023-04-21T08:41:39.523Z,9.358655
2023-04-21T08:42:39.360Z,9.358547
2023-04-21T08:43:39.515Z,9.358569
2023-04-21T08:44:39.344Z,9.358533
2023-04-21T08:45:39.463Z,9.358575
2023-04-21T08:46:39.404Z,9.358546
2023-04-21T08:47:39.332Z,9.358554
2023-04-21T08:48:39.415Z,9.358518
2023-04-21T08:49:39.267Z,9.358540
2023-04-21T08:50:39.274Z,9.358613
2023-04-21T08:51:39.291Z,9.358583
2023-04-21T08:52:39.242Z,9.358634
2023-04-21T08:53:39.306Z,9.358622
2023-04-21T08:54:39.250Z,9.358607
2023-04-21T08:55:39.227Z,9.358672
2023-04-21T08:56:39.253Z,9.358699
2023-04-21T08:57:39.224Z,9.358686
2023-04-21T08:58:39.268Z,9.358670
2023-04-21T08:59:39.218Z,9.358650
2023-04-21T09:00:39.180Z,9.358625
2023-04-21T09:01:39.164Z,9.358603
2023-04-21T09:02:39.346Z,9.358636
2023-04-21T09:03:39.412Z,9.358619
2023-04-21T09:04:39.356Z,9.358556
2023-04-21T09:05:42.949Z,9.358632
2023-04-21T09:06:40.225Z,9.358633
2023-04-21T09:07:39.166Z,9.358588
2023-04-21T09:08:39.079Z,9.358627
2023-04-21T09:09:39.112Z,9.358569
2023-04-21T09:10:39.077Z,9.358561
2023-04-21T09:11:39.069Z,9.358577
2023-04-21T09:12:39.036Z,9.358582
2023-04-21T09:13:39.062Z,9.358591
2023-04-21T09:14:39.056Z,9.358578
2023-04-21T09:15:39.014Z,9.358549
2023-04-21T09:16:39.051Z,9.358564
2023-04-21T09:17:39.049Z,9.358586
2023-04-21T09:18:38.981Z,9.358551
2023-04-21T09:19:39.015Z,9.358562
2023-04-21T09:20:38.953Z,9.358580
2023-04-21T09:21:38.958Z,9.358568
2023-04-21T09:22:38.930Z,9.358613
2023-04-21T09:23:38.928Z,9.358609
2023-04-21T09:24:38.965Z,9.358577
2023-04-21T09:25:38.918Z,9.358591
2023-04-21T09:26:38.873Z,9.358643
2023-04-21T09:27:38.914Z,9.358625
2023-04-21T09:28:38.878Z,9.358606
2023-04-21T09:29:38.878Z,9.358651
2023-04-21T09:30:38.980Z,9.358651
2023-04-21T09:31:38.902Z,9.358629
2023-04-21T09:32:38.880Z,9.358602
2023-04-21T09:33:49.600Z,9.358600
2023-04-21T09:34:40.833Z,9.358603
2023-04-21T09:35:38.836Z,9.358589
2023-04-21T09:36:38.798Z,9.358581
2023-04-21T09:37:38.813Z,9.358540
2023-04-21T09:38:38.749Z,9.358542
2023-04-21T09:39:49.750Z,9.358560
2023-04-21T09:40:40.783Z,9.358595
2023-04-21T09:41:38.743Z,9.358534
2023-04-21T09:42:40.555Z,9.358516
2023-04-21T09:43:39.703Z,9.358512
2023-04-21T09:44:47.516Z,9.358526
2023-04-21T09:45:41.048Z,9.358559
2023-04-21T09:46:39.737Z,9.358546
2023-04-21T09:47:38.742Z,9.358541
2023-04-21T09:48:38.684Z,9.358530
2023-04-21T09:49:38.648Z,9.358582
2023-04-21T09:51:20.760Z,9.358495
2023-04-21T09:51:56.157Z,9.358586
2023-04-21T09:52:40.640Z,9.358580
2023-04-21T09:53:38.593Z,9.358505
2023-04-21T09:54:38.621Z,9.358461
2023-04-21T09:55:38.620Z,9.358464
2023-04-21T09:56:38.565Z,9.358560
2023-04-21T09:57:38.602Z,9.358594
2023-04-21T09:58:38.600Z,9.358581
2023-04-21T09:59:38.584Z,9.358592
2023-04-21T10:00:38.576Z,9.358605
2023-04-21T10:01:38.615Z,9.358550
2023-04-21T10:02:38.623Z,9.358555
2023-04-21T10:03:38.602Z,9.358568
2023-04-21T10:04:39.184Z,9.358541
2023-04-21T10:05:41.920Z,9.358542
2023-04-21T10:06:39.456Z,9.358560
2023-04-21T10:07:38.499Z,9.358620
2023-04-21T10:08:38.476Z,9.358545
2023-04-21T10:09:38.450Z,9.358584
2023-04-21T10:10:38.451Z,9.358515
2023-04-21T10:11:38.422Z,9.358520
2023-04-21T10:12:38.453Z,9.358520
2023-04-21T10:13:38.405Z,9.358488
2023-04-21T10:14:38.401Z,9.358498
2023-04-21T10:15:38.370Z,9.358534
2023-04-21T10:16:38.544Z,9.358554
2023-04-21T10:17:38.413Z,9.358527
2023-04-21T10:18:38.338Z,9.358568
2023-04-21T10:19:38.364Z,9.358600
2023-04-21T10:20:38.348Z,9.358616
2023-04-21T10:21:38.326Z,9.358619
2023-04-21T10:22:38.324Z,9.358628
2023-04-21T10:23:38.330Z,9.358664
2023-04-21T10:24:38.320Z,9.358659
2023-04-21T10:25:38.252Z,9.358642
2023-04-21T10:26:38.341Z,9.358677
2023-04-21T10:27:38.257Z,9.358612
2023-04-21T10:28:38.240Z,9.358567
2023-04-21T10:29:54.815Z,9.358602
2023-04-21T10:30:40.227Z,9.358582
2023-04-21T10:31:38.241Z,9.358614
2023-04-21T10:32:38.215Z,9.358601
2023-04-21T10:33:38.197Z,9.358578
2023-04-21T10:34:38.155Z,9.358650
2023-04-21T10:35:38.214Z,9.358628
2023-04-21T10:36:38.156Z,9.358579
2023-04-21T10:37:38.161Z,9.358536
2023-04-21T10:38:38.204Z,9.358563
2023-04-21T10:39:38.124Z,9.358591
2023-04-21T10:41:39.113Z,9.358544
2023-04-21T10:42:38.110Z,9.358559
2023-04-21T10:43:38.074Z,9.358547
2023-04-21T10:44:38.065Z,9.358563
2023-04-21T10:45:38.070Z,9.358568
2023-04-21T10:46:38.120Z,9.358526
2023-04-21T10:47:38.133Z,9.358552
2023-04-21T10:48:38.012Z,9.358542
2023-04-21T10:49:38.026Z,9.358518
2023-04-21T10:50:39.575Z,9.358559
2023-04-21T10:51:37.993Z,9.358606
2023-04-21T10:53:09.899Z,9.358605
2023-04-21T10:53:37.961Z,9.358547
2023-04-21T10:54:37.957Z,9.358572
2023-04-21T10:55:37.943Z,9.358592
2023-04-21T10:56:38.835Z,9.358562
2023-04-21T10:57:38.916Z,9.358533
2023-04-21T10:58:37.933Z,9.358560
2023-04-21T10:59:37.892Z,9.358616
2023-04-21T11:00:37.907Z,9.358665
2023-04-21T11:01:37.981Z,9.358655
2023-04-21T11:02:39.782Z,9.358692
2023-04-21T11:03:38.982Z,9.358646
2023-04-21T11:04:38.099Z,9.358603
2023-04-21T11:05:37.840Z,9.358617
2023-04-21T11:06:37.821Z,9.358586
2023-04-21T11:07:37.806Z,9.358611
2023-04-21T11:08:38.334Z,9.358650
2023-04-21T11:09:38.801Z,9.358670
2023-04-21T11:10:37.786Z,9.358616
2023-04-21T11:11:37.773Z,9.358652
2023-04-21T11:12:37.770Z,9.358632
2023-04-21T11:13:37.771Z,9.358660
2023-04-21T11:14:37.803Z,9.358652
2023-04-21T11:15:37.721Z,9.358570
2023-04-21T11:16:38.753Z,9.358537
2023-04-21T11:17:37.791Z,9.358538
2023-04-21T11:18:37.691Z,9.358604
2023-04-21T11:19:37.682Z,9.358572
2023-04-21T11:20:37.681Z,9.358564
2023-04-21T11:21:37.667Z,9.358543
2023-04-21T11:22:37.684Z,9.358526
2023-04-21T11:23:37.640Z,9.358493
2023-04-21T11:24:37.630Z,9.358441
2023-04-21T11:25:37.630Z,9.358508
2023-04-21T11:26:37.613Z,9.358481
2023-04-21T11:27:37.625Z,9.358521
2023-04-21T11:28:37.592Z,9.358515
2023-04-21T11:29:38.581Z,9.358554
2023-04-21T11:30:37.615Z,9.358604
2023-04-21T11:31:37.738Z,9.358619
2023-04-21T11:32:38.451Z,9.358541
2023-04-21T11:33:38.612Z,9.358557
2023-04-21T11:34:37.520Z,9.358521
2023-04-21T11:35:37.509Z,9.358539
2023-04-21T11:36:37.502Z,9.358607
2023-04-21T11:37:37.495Z,9.358613
2023-04-21T11:38:37.491Z,9.358580
2023-04-21T11:39:37.493Z,9.358565
2023-04-21T11:40:37.484Z,9.358542
2023-04-21T11:41:37.446Z,9.358534
2023-04-21T11:42:37.437Z,9.358569
2023-04-21T11:43:37.437Z,9.358580
2023-04-21T11:44:37.415Z,9.358549
2023-04-21T11:45:37.443Z,9.358545